createdAt,value
2018-06-28T00:00:07.080Z,0.80
2018-06-28T00:02:35.214Z,1.02
2018-06-28T00:05:03.415Z,0.90
2018-06-28T00:07:31.578Z,0.80
2018-06-28T00:10:00.704Z,0.90
2018-06-28T00:12:28.871Z,1.00
2018-06-28T00:14:57.043Z,0.95
2018-06-28T00:17:25.213Z,1.15
2018-06-28T00:19:54.957Z,0.90
2018-06-28T00:22:23.122Z,0.90
2018-06-28T00:24:51.223Z,0.90
2018-06-28T00:27:19.394Z,0.90
2018-06-28T00:29:47.499Z,0.98
2018-06-28T00:32:15.690Z,0.90
2018-06-28T00:34:43.871Z,0.98
2018-06-28T00:37:12.042Z,0.85
2018-06-28T00:39:40.137Z,0.93
2018-06-28T00:42:08.439Z,0.95
2018-06-28T00:44:36.606Z,0.95
2018-06-28T00:47:04.683Z,1.15
2018-06-28T00:49:32.811Z,0.98
2018-06-28T00:52:00.962Z,0.82
2018-06-28T00:54:28.862Z,1.02
2018-06-28T00:56:57.025Z,0.90
2018-06-28T00:59:25.106Z,1.00
2018-06-28T01:01:53.217Z,1.00
2018-06-28T01:04:21.435Z,1.30
2018-06-28T01:06:49.687Z,0.70
2018-06-28T01:09:17.754Z,1.25
2018-06-28T01:11:45.875Z,0.82
2018-06-28T01:14:14.043Z,1.00
2018-06-28T01:16:42.231Z,1.27
2018-06-28T01:19:10.497Z,1.17
2018-06-28T01:21:38.599Z,1.05
2018-06-28T01:24:06.778Z,0.90
2018-06-28T01:26:34.866Z,1.10
2018-06-28T01:29:02.951Z,1.07
2018-06-28T01:31:31.042Z,1.12
2018-06-28T01:33:59.214Z,0.88
2018-06-28T01:36:27.326Z,1.35
2018-06-28T01:38:55.426Z,1.10
2018-06-28T01:41:23.618Z,1.10
2018-06-28T01:43:51.858Z,1.07
2018-06-28T01:46:19.988Z,1.05
2018-06-28T01:48:48.195Z,1.10
2018-06-28T01:51:16.470Z,1.10
2018-06-28T01:53:44.659Z,1.10
2018-06-28T01:56:12.858Z,1.25
2018-06-28T01:58:41.027Z,1.10
2018-06-28T02:01:09.471Z,1.10
2018-06-28T02:03:37.610Z,1.20
2018-06-28T02:06:05.788Z,1.30
2018-06-28T02:08:33.974Z,1.42
2018-06-28T02:11:02.161Z,1.35
2018-06-28T02:13:30.354Z,1.40
2018-06-28T02:15:58.530Z,1.20
2018-06-28T02:18:26.728Z,1.40
2018-06-28T02:20:54.906Z,1.20
2018-06-28T02:23:23.098Z,1.05
2018-06-28T02:25:51.270Z,1.20
2018-06-28T02:28:19.474Z,1.30
2018-06-28T02:30:47.662Z,1.00
2018-06-28T02:33:15.850Z,1.30
2018-06-28T02:35:44.034Z,1.10
2018-06-28T02:38:12.243Z,1.62
2018-06-28T02:40:40.582Z,1.30
2018-06-28T02:43:08.771Z,1.37
2018-06-28T02:45:36.951Z,1.20
2018-06-28T02:48:05.146Z,1.12
2018-06-28T02:50:33.343Z,1.20
2018-06-28T02:53:01.610Z,1.42
2018-06-28T02:55:29.721Z,1.17
2018-06-28T02:57:57.882Z,1.20
2018-06-28T03:00:26.086Z,1.20
2018-06-28T03:02:54.259Z,1.50
2018-06-28T03:05:22.522Z,1.40
2018-06-28T03:07:50.641Z,1.00
2018-06-28T03:10:18.730Z,1.35
2018-06-28T03:12:46.923Z,1.42
2018-06-28T03:15:15.116Z,1.20
2018-06-28T03:17:43.278Z,1.15
2018-06-28T03:20:11.499Z,1.50
2018-06-28T03:22:39.674Z,1.40
2018-06-28T03:25:07.961Z,1.42
2018-06-28T03:27:36.126Z,1.70
2018-06-28T03:30:04.818Z,1.72
2018-06-28T03:32:32.926Z,1.52
2018-06-28T03:35:01.099Z,1.45
2018-06-28T03:37:29.278Z,1.35
2018-06-28T03:39:58.407Z,1.40
2018-06-28T03:42:26.571Z,1.57
2018-06-28T03:44:54.674Z,1.37
2018-06-28T03:47:22.851Z,1.40
2018-06-28T03:49:51.062Z,1.60
2018-06-28T03:52:19.222Z,1.30
2018-06-28T03:54:47.411Z,1.67
2018-06-28T03:57:15.618Z,1.35
2018-06-28T03:59:43.797Z,1.70
2018-06-28T04:02:11.969Z,1.80
2018-06-28T04:04:40.178Z,1.60
2018-06-28T04:07:08.354Z,1.60
2018-06-28T04:09:36.522Z,1.80
2018-06-28T04:12:04.632Z,1.87
2018-06-28T04:14:32.806Z,1.77
2018-06-28T04:17:01.003Z,1.50
2018-06-28T04:19:29.201Z,1.85
2018-06-28T04:21:57.371Z,1.82
2018-06-28T04:24:25.813Z,1.32
2018-06-28T04:26:53.954Z,1.60
2018-06-28T04:29:22.122Z,1.65
2018-06-28T04:31:50.235Z,1.60
2018-06-28T04:34:18.401Z,1.32
2018-06-28T04:36:46.609Z,2.10
2018-06-28T04:39:14.774Z,1.17
2018-06-28T04:41:42.962Z,1.55
2018-06-28T04:44:11.390Z,1.40
2018-06-28T04:46:39.555Z,1.40
2018-06-28T04:49:07.735Z,1.62
2018-06-28T04:51:35.950Z,1.82
2018-06-28T04:54:04.546Z,1.70
2018-06-28T04:56:32.721Z,1.52
2018-06-28T04:59:00.878Z,1.47
2018-06-28T05:01:29.077Z,1.80
2018-06-28T05:03:57.260Z,1.70
2018-06-28T05:06:25.463Z,1.80
2018-06-28T05:08:53.634Z,1.77
2018-06-28T05:11:21.823Z,1.75
2018-06-28T05:13:50.020Z,1.42
2018-06-28T05:16:18.190Z,1.20
2018-06-28T05:18:46.391Z,1.87
2018-06-28T05:21:14.566Z,2.00
2018-06-28T05:23:42.763Z,1.67
2018-06-28T05:26:13.195Z,1.50
2018-06-28T05:28:41.391Z,1.70
2018-06-28T05:31:09.563Z,1.75
2018-06-28T05:33:37.769Z,1.65
2018-06-28T05:36:05.930Z,1.52
2018-06-28T05:38:34.022Z,1.70
2018-06-28T05:41:02.233Z,1.62
2018-06-28T05:43:30.434Z,1.52
2018-06-28T05:45:58.614Z,1.70
2018-06-28T05:48:26.810Z,2.08
2018-06-28T05:50:54.978Z,1.47
2018-06-28T05:53:23.282Z,1.70
2018-06-28T05:55:51.467Z,1.90
2018-06-28T05:58:19.658Z,1.50
2018-06-28T06:00:47.776Z,1.92
2018-06-28T06:03:16.137Z,2.05
2018-06-28T06:05:44.318Z,2.20
2018-06-28T06:08:12.515Z,1.47
2018-06-28T06:10:40.682Z,1.80
2018-06-28T06:13:08.886Z,1.77
2018-06-28T06:15:37.054Z,1.72
2018-06-28T06:18:05.587Z,1.47
2018-06-28T06:20:33.752Z,1.67
2018-06-28T06:23:01.941Z,1.42
2018-06-28T06:25:30.123Z,1.80
2018-06-28T06:27:58.310Z,1.47
2018-06-28T06:30:26.490Z,1.70
2018-06-28T06:32:54.669Z,1.50
2018-06-28T06:35:22.974Z,1.50
2018-06-28T06:37:51.159Z,1.50
2018-06-28T06:40:19.321Z,1.60
2018-06-28T06:42:47.495Z,1.60
2018-06-28T06:45:15.690Z,1.80
2018-06-28T06:47:43.902Z,1.60
2018-06-28T06:50:12.060Z,2.25
2018-06-28T06:52:40.243Z,1.75
2018-06-28T06:55:08.542Z,1.67
2018-06-28T06:57:36.627Z,1.70
2018-06-28T07:00:05.138Z,1.80
2018-06-28T07:02:33.294Z,2.00
2018-06-28T07:05:01.515Z,1.80
2018-06-28T07:07:29.683Z,1.65
2018-06-28T07:09:57.858Z,1.75
2018-06-28T07:12:26.090Z,2.10
2018-06-28T07:14:54.238Z,1.80
2018-06-28T07:17:22.419Z,1.75
2018-06-28T07:19:50.645Z,1.77
2018-06-28T07:22:18.815Z,2.00
2018-06-28T07:24:46.982Z,2.02
2018-06-28T07:27:15.170Z,1.92
2018-06-28T07:29:43.355Z,1.90
2018-06-28T07:32:11.560Z,1.75
2018-06-28T07:34:39.738Z,1.92
2018-06-28T07:37:07.935Z,1.80
2018-06-28T07:39:36.125Z,1.47
2018-06-28T07:42:04.246Z,2.02
2018-06-28T07:44:32.393Z,2.22
2018-06-28T07:47:00.627Z,1.90
2018-06-28T07:49:28.779Z,1.72
2018-06-28T07:51:56.986Z,2.00
2018-06-28T07:54:25.152Z,1.90
2018-06-28T07:56:53.350Z,1.82
2018-06-28T07:59:21.526Z,1.70
2018-06-28T08:01:49.710Z,1.80
2018-06-28T08:04:17.899Z,1.55
2018-06-28T08:06:46.097Z,1.87
2018-06-28T08:09:14.274Z,1.52
2018-06-28T08:11:42.467Z,1.80
2018-06-28T08:14:10.850Z,1.95
2018-06-28T08:16:39.043Z,1.87
2018-06-28T08:19:07.339Z,1.98
2018-06-28T08:21:35.560Z,2.00
2018-06-28T08:24:03.688Z,1.72
2018-06-28T08:26:31.918Z,1.40
2018-06-28T08:29:00.075Z,1.72
2018-06-28T08:31:28.267Z,2.02
2018-06-28T08:33:56.494Z,1.87
2018-06-28T08:36:24.630Z,1.75
2018-06-28T08:38:52.830Z,1.55
2018-06-28T08:41:20.966Z,1.80
2018-06-28T08:43:49.071Z,1.80
2018-06-28T08:46:17.247Z,2.10
2018-06-28T08:48:45.338Z,1.85
2018-06-28T08:51:13.522Z,2.12
2018-06-28T08:53:41.706Z,1.90
2018-06-28T08:56:09.897Z,1.55
2018-06-28T08:58:38.087Z,1.57
2018-06-28T09:01:06.275Z,2.20
2018-06-28T09:03:34.488Z,1.70
2018-06-28T09:06:02.646Z,1.75
2018-06-28T09:08:30.973Z,1.90
2018-06-28T09:10:59.113Z,2.02
2018-06-28T09:13:27.328Z,2.05
2018-06-28T09:15:55.487Z,1.82
2018-06-28T09:18:23.678Z,1.98
2018-06-28T09:20:51.882Z,2.33
2018-06-28T09:23:20.075Z,1.95
2018-06-28T09:25:48.242Z,2.10
2018-06-28T09:28:16.434Z,3.08
2018-06-28T09:30:44.605Z,2.10
2018-06-28T09:33:12.706Z,2.10
2018-06-28T09:35:41.014Z,2.00
2018-06-28T09:38:09.175Z,1.92
2018-06-28T09:40:37.383Z,1.90
2018-06-28T09:43:05.593Z,1.80
2018-06-28T09:45:33.774Z,2.00
2018-06-28T09:48:01.970Z,2.22
2018-06-28T09:50:30.143Z,1.90
2018-06-28T09:52:58.327Z,2.20
2018-06-28T09:55:26.435Z,1.87
2018-06-28T09:57:55.011Z,2.17
2018-06-28T10:00:28.785Z,2.00
2018-06-28T10:02:56.906Z,1.95
2018-06-28T10:05:25.095Z,1.90
2018-06-28T10:07:53.325Z,1.85
2018-06-28T10:10:21.461Z,1.77
2018-06-28T10:12:49.729Z,2.30
2018-06-28T10:15:17.851Z,2.12
2018-06-28T10:17:46.042Z,2.10
2018-06-28T10:20:14.231Z,1.90
2018-06-28T10:22:42.417Z,1.85
2018-06-28T10:25:10.643Z,1.85
2018-06-28T10:27:38.773Z,1.75
2018-06-28T10:30:06.962Z,2.10
2018-06-28T10:32:35.351Z,1.42
2018-06-28T10:35:03.554Z,1.70
2018-06-28T10:37:31.770Z,1.98
2018-06-28T10:39:59.965Z,2.08
2018-06-28T10:42:28.110Z,2.27
2018-06-28T10:44:56.219Z,1.70
2018-06-28T10:47:24.376Z,1.77
2018-06-28T10:49:52.701Z,1.80
2018-06-28T10:52:20.862Z,1.77
2018-06-28T10:54:49.014Z,1.65
2018-06-28T10:57:17.194Z,1.50
2018-06-28T10:59:45.398Z,1.60
2018-06-28T11:02:13.576Z,1.40
2018-06-28T11:04:41.762Z,1.55
2018-06-28T11:07:09.955Z,1.72
2018-06-28T11:09:38.134Z,2.55
2018-06-28T11:12:06.315Z,1.87
2018-06-28T11:14:34.501Z,2.00
2018-06-28T11:17:02.702Z,2.30
2018-06-28T11:19:30.866Z,1.62
2018-06-28T11:21:58.988Z,2.05
2018-06-28T11:24:27.171Z,1.85
2018-06-28T11:26:55.338Z,2.17
2018-06-28T11:29:23.905Z,2.25
2018-06-28T11:31:52.030Z,1.98
2018-06-28T11:34:20.539Z,2.42
2018-06-28T11:36:48.707Z,1.95
2018-06-28T11:39:16.898Z,1.90
2018-06-28T11:41:45.155Z,1.90
2018-06-28T11:44:13.254Z,2.02
2018-06-28T11:46:41.450Z,2.30
2018-06-28T11:49:09.625Z,2.25
2018-06-28T11:51:37.951Z,2.10
2018-06-28T11:54:06.109Z,1.80
2018-06-28T11:56:34.203Z,1.90
2018-06-28T11:59:02.370Z,2.20
2018-06-28T12:01:30.402Z,1.85
2018-06-28T12:03:58.558Z,2.22
2018-06-28T12:06:26.734Z,1.70
2018-06-28T12:08:54.930Z,2.00
2018-06-28T12:11:23.278Z,1.60
2018-06-28T12:13:51.514Z,1.60
2018-06-28T12:16:19.682Z,1.90
2018-06-28T12:18:47.772Z,1.98
2018-06-28T12:21:15.957Z,1.80
2018-06-28T12:23:44.153Z,2.05
2018-06-28T12:26:12.366Z,2.00
2018-06-28T12:28:40.531Z,1.60
2018-06-28T12:31:08.719Z,1.80
2018-06-28T12:33:36.890Z,2.10
2018-06-28T12:36:05.202Z,1.98
2018-06-28T12:38:33.425Z,1.85
2018-06-28T12:41:01.783Z,2.50
2018-06-28T12:43:30.698Z,1.70
2018-06-28T12:46:00.000Z,2.30
2018-06-28T12:48:28.366Z,1.98
2018-06-28T12:50:56.606Z,2.00
2018-06-28T12:53:24.807Z,2.00
2018-06-28T12:56:33.006Z,2.10
2018-06-28T12:59:07.538Z,1.65
2018-06-28T13:01:35.782Z,1.87
2018-06-28T13:04:03.928Z,1.90
2018-06-28T13:06:32.092Z,1.77
2018-06-28T13:09:00.794Z,1.87
2018-06-28T13:11:29.284Z,1.90
2018-06-28T13:13:57.391Z,1.72
2018-06-28T13:16:26.881Z,1.85
2018-06-28T13:18:55.411Z,1.60
2018-06-28T13:21:23.570Z,1.55
2018-06-28T13:23:51.784Z,1.85
2018-06-28T13:26:20.199Z,1.55
2018-06-28T13:28:48.237Z,1.98
2018-06-28T13:31:16.532Z,1.77
2018-06-28T13:33:44.798Z,1.55
2018-06-28T13:36:13.803Z,1.72
2018-06-28T13:38:42.002Z,1.60
2018-06-28T13:41:10.470Z,2.08
2018-06-28T13:43:38.570Z,1.70
2018-06-28T13:46:06.805Z,1.90
2018-06-28T13:48:35.210Z,1.70
2018-06-28T13:51:03.415Z,1.77
2018-06-28T13:53:31.562Z,1.50
2018-06-28T13:55:59.742Z,1.62
2018-06-28T13:58:28.022Z,1.30
2018-06-28T14:00:56.339Z,1.50
2018-06-28T14:03:24.679Z,1.20
2018-06-28T14:05:52.786Z,1.35
2018-06-28T14:08:22.121Z,1.00
2018-06-28T14:10:50.286Z,1.22
2018-06-28T14:13:18.459Z,1.40
2018-06-28T14:15:46.690Z,1.70
2018-06-28T14:18:14.854Z,1.40
2018-06-28T14:20:42.983Z,1.50
2018-06-28T14:23:11.098Z,1.60
2018-06-28T14:25:39.302Z,1.37
2018-06-28T14:28:07.577Z,1.50
2018-06-28T14:30:35.678Z,1.50
2018-06-28T14:33:04.146Z,1.60
2018-06-28T14:35:32.414Z,1.65
2018-06-28T14:38:00.587Z,1.67
2018-06-28T14:40:28.726Z,1.60
2018-06-28T14:42:56.913Z,1.55
2018-06-28T14:45:25.097Z,1.30
2018-06-28T14:47:53.277Z,1.67
2018-06-28T14:50:21.775Z,1.50
2018-06-28T14:52:50.019Z,1.80
2018-06-28T14:55:18.169Z,1.87
2018-06-28T14:57:46.530Z,1.45
2018-06-28T15:00:14.759Z,1.65
2018-06-28T15:02:42.842Z,1.30
2018-06-28T15:05:11.334Z,1.50
2018-06-28T15:07:39.496Z,1.65
2018-06-28T15:10:07.694Z,1.80
2018-06-28T15:12:35.903Z,1.52
2018-06-28T15:15:04.442Z,1.80
2018-06-28T15:17:32.526Z,2.02
2018-06-28T15:20:00.651Z,2.22
2018-06-28T15:22:28.825Z,1.80
2018-06-28T15:24:57.329Z,1.45
2018-06-28T15:27:25.559Z,1.60
2018-06-28T15:29:54.151Z,1.72
2018-06-28T15:32:22.241Z,1.67
2018-06-28T15:34:50.384Z,1.82
2018-06-28T15:37:18.574Z,1.95
2018-06-28T15:39:47.126Z,1.85
2018-06-28T15:42:15.262Z,1.50
2018-06-28T15:44:43.439Z,1.90
2018-06-28T15:47:11.601Z,1.60
2018-06-28T15:49:39.826Z,1.32
2018-06-28T15:52:08.045Z,1.90
2018-06-28T15:54:36.066Z,1.92
2018-06-28T15:57:04.274Z,1.55
2018-06-28T15:59:32.446Z,1.52
2018-06-28T16:02:00.633Z,1.75
2018-06-28T16:04:28.830Z,1.87
2018-06-28T16:06:56.995Z,1.47
2018-06-28T16:09:25.217Z,1.40
2018-06-28T16:11:53.511Z,1.85
2018-06-28T16:14:21.690Z,1.65
2018-06-28T16:16:49.904Z,1.57
2018-06-28T16:19:18.054Z,1.30
2018-06-28T16:21:46.242Z,1.90
2018-06-28T16:24:14.426Z,1.77
2018-06-28T16:26:42.521Z,1.55
2018-06-28T16:29:10.687Z,1.52
2018-06-28T16:31:39.111Z,1.90
2018-06-28T16:34:07.270Z,1.95
2018-06-28T16:36:35.463Z,1.42
2018-06-28T16:39:05.778Z,1.70
2018-06-28T16:41:33.986Z,1.72
2018-06-28T16:44:02.398Z,1.75
2018-06-28T16:46:30.584Z,2.02
2018-06-28T16:48:58.884Z,1.60
2018-06-28T16:51:27.146Z,1.95
2018-06-28T16:53:55.329Z,1.65
2018-06-28T16:56:23.570Z,2.05
2018-06-28T16:58:51.694Z,1.70
2018-06-28T17:01:19.881Z,1.50
2018-06-28T17:03:48.078Z,1.60
2018-06-28T17:06:16.640Z,1.90
2018-06-28T17:08:44.750Z,1.47
2018-06-28T17:11:12.955Z,1.67
2018-06-28T17:13:41.126Z,1.92
2018-06-28T17:16:09.318Z,1.67
2018-06-28T17:18:37.494Z,1.50
2018-06-28T17:21:05.774Z,1.90
2018-06-28T17:23:33.894Z,1.72
2018-06-28T17:26:02.062Z,1.50
2018-06-28T17:28:30.725Z,1.80
2018-06-28T17:30:58.850Z,2.15
2018-06-28T17:33:27.246Z,1.80
2018-06-28T17:35:55.570Z,1.75
2018-06-28T17:38:23.698Z,1.70
2018-06-28T17:40:51.918Z,2.12
2018-06-28T17:43:20.087Z,1.80
2018-06-28T17:45:48.255Z,1.95
2018-06-28T17:48:16.374Z,1.60
2018-06-28T17:50:44.633Z,1.60
2018-06-28T17:53:12.739Z,1.70
2018-06-28T17:55:41.247Z,1.80
2018-06-28T17:58:09.413Z,1.72
2018-06-28T18:00:37.587Z,1.70
2018-06-28T18:03:05.874Z,1.50
2018-06-28T18:05:33.954Z,2.75
2018-06-28T18:08:02.054Z,1.72
2018-06-28T18:10:30.254Z,1.72
2018-06-28T18:12:58.430Z,2.30
2018-06-28T18:15:26.682Z,1.60
2018-06-28T18:17:57.000Z,1.60
2018-06-28T18:20:25.143Z,1.75
2018-06-28T18:22:53.376Z,1.62
2018-06-28T18:25:21.509Z,1.92
2018-06-28T18:27:49.813Z,1.95
2018-06-28T18:30:17.938Z,1.50
2018-06-28T18:32:46.243Z,1.60
2018-06-28T18:35:14.359Z,1.87
2018-06-28T18:37:42.557Z,1.90
2018-06-28T18:40:10.759Z,1.55
2018-06-28T18:42:38.915Z,1.92
2018-06-28T18:45:07.337Z,2.05
2018-06-28T18:47:35.490Z,1.80
2018-06-28T18:50:03.993Z,1.98
2018-06-28T18:52:32.252Z,1.87
2018-06-28T18:55:00.205Z,1.45
2018-06-28T18:57:28.354Z,1.62
2018-06-28T18:59:56.667Z,1.90
2018-06-28T19:02:24.818Z,1.72
2018-06-28T19:04:53.482Z,1.70
2018-06-28T19:07:21.597Z,1.95
2018-06-28T19:09:55.095Z,1.85
2018-06-28T19:12:23.199Z,1.98
2018-06-28T19:15:56.773Z,1.72
2018-06-28T19:18:24.910Z,1.85
2018-06-28T19:20:58.443Z,1.95
2018-06-28T19:23:32.232Z,2.05
2018-06-28T19:26:00.474Z,1.90
2018-06-28T19:28:28.645Z,2.00
2018-06-28T19:31:02.344Z,2.42
2018-06-28T19:33:30.527Z,1.95
2018-06-28T19:35:58.717Z,1.70
2018-06-28T19:38:31.135Z,1.90
2018-06-28T19:41:04.930Z,2.30
2018-06-28T19:43:33.034Z,1.82
2018-06-28T19:46:01.221Z,2.08
2018-06-28T19:48:29.493Z,1.80
2018-06-28T19:51:02.934Z,1.77
2018-06-28T19:53:31.121Z,2.25
2018-06-28T19:55:59.290Z,1.90
2018-06-28T19:58:27.469Z,1.75
2018-06-28T20:01:01.254Z,2.15
2018-06-28T20:03:34.837Z,1.98
2018-06-28T20:06:02.995Z,2.10
2018-06-28T20:08:31.170Z,1.87
2018-06-28T20:10:59.365Z,1.98
2018-06-28T20:13:33.106Z,1.90
2018-06-28T20:16:06.730Z,2.40
2018-06-28T20:18:40.448Z,1.85
2018-06-28T20:21:08.618Z,1.75
2018-06-28T20:23:36.769Z,1.90
2018-06-28T20:26:10.570Z,2.35
2018-06-28T20:28:44.003Z,1.90
2018-06-28T20:31:17.792Z,2.20
2018-06-28T20:33:51.325Z,1.80
2018-06-28T20:36:19.600Z,1.57
2018-06-28T20:38:47.723Z,1.77
2018-06-28T20:41:15.894Z,1.70
2018-06-28T20:43:44.057Z,2.12
2018-06-28T20:46:12.174Z,2.02
2018-06-28T20:48:40.328Z,1.92
2018-06-28T20:51:08.488Z,1.70
2018-06-28T20:53:36.601Z,2.00
2018-06-28T20:56:05.922Z,1.98
2018-06-28T20:58:36.035Z,1.87
2018-06-28T21:01:04.282Z,2.42
2018-06-28T21:03:32.422Z,2.10
2018-06-28T21:06:00.518Z,2.12
2018-06-28T21:08:28.714Z,1.82
2018-06-28T21:10:56.887Z,2.40
2018-06-28T21:13:25.077Z,3.05
2018-06-28T21:15:53.174Z,2.40
2018-06-28T21:18:21.349Z,2.15
2018-06-28T21:20:49.636Z,2.40
2018-06-28T21:23:17.711Z,2.10
2018-06-28T21:25:45.833Z,1.72
2018-06-28T21:28:13.997Z,2.02
2018-06-28T21:30:42.174Z,2.10
2018-06-28T21:33:10.394Z,2.22
2018-06-28T21:35:38.659Z,1.80
2018-06-28T21:38:06.782Z,2.20
2018-06-28T21:40:34.911Z,1.55
2018-06-28T21:43:03.014Z,2.05
2018-06-28T21:45:31.214Z,1.95
2018-06-28T21:47:59.386Z,1.52
2018-06-28T21:50:27.559Z,1.60
2018-06-28T21:52:55.662Z,2.33
2018-06-28T21:55:24.015Z,2.22
2018-06-28T21:57:52.157Z,2.20
2018-06-28T22:00:29.294Z,1.90
2018-06-28T22:02:57.750Z,1.87
2018-06-28T22:05:25.922Z,2.30
2018-06-28T22:07:54.406Z,2.33
2018-06-28T22:10:22.483Z,2.12
2018-06-28T22:12:50.718Z,2.20
2018-06-28T22:15:23.418Z,1.95
2018-06-28T22:17:51.930Z,2.10
2018-06-28T22:20:20.054Z,2.20
2018-06-28T22:22:48.250Z,1.87
2018-06-28T22:25:16.411Z,2.08
2018-06-28T22:27:44.498Z,1.90
2018-06-28T22:30:12.699Z,2.10
2018-06-28T22:32:41.418Z,2.22
2018-06-28T22:35:09.501Z,2.42
2018-06-28T22:37:37.650Z,2.10
2018-06-28T22:40:06.798Z,2.40
2018-06-28T22:42:35.082Z,1.70
2018-06-28T22:45:03.274Z,1.75
2018-06-28T22:47:31.558Z,2.08
2018-06-28T22:50:00.670Z,2.20
2018-06-28T22:52:28.818Z,1.90
2018-06-28T22:54:57.353Z,2.08
2018-06-28T22:57:25.842Z,2.30
2018-06-28T22:59:55.785Z,2.40
2018-06-28T23:02:23.975Z,2.20
2018-06-28T23:04:52.561Z,2.20
2018-06-28T23:07:20.747Z,2.62
2018-06-28T23:09:48.943Z,2.30
2018-06-28T23:12:17.318Z,2.47
2018-06-28T23:14:45.518Z,2.60
2018-06-28T23:17:13.690Z,2.37
2018-06-28T23:19:41.892Z,2.10
2018-06-28T23:22:17.938Z,2.17
2018-06-28T23:24:46.154Z,2.50
2018-06-28T23:27:14.346Z,2.50
2018-06-28T23:29:42.506Z,2.25
2018-06-28T23:32:10.698Z,2.20
2018-06-28T23:34:38.886Z,2.50
2018-06-28T23:37:07.082Z,2.25
2018-06-28T23:39:35.258Z,2.55
2018-06-28T23:42:03.458Z,2.42
2018-06-28T23:44:31.627Z,2.15
2018-06-28T23:46:59.730Z,2.30
2018-06-28T23:49:27.902Z,2.25
2018-06-28T23:51:56.099Z,2.45
2018-06-28T23:54:24.317Z,2.42
2018-06-28T23:56:52.483Z,2.87
2018-06-28T23:59:20.655Z,2.37
